createdAt,value
2022-10-15T00:04:31.278Z,9.10
2022-10-15T00:09:33.585Z,7.88
2022-10-15T00:14:34.619Z,8.77
2022-10-15T00:19:35.475Z,8.68
2022-10-15T00:24:37.640Z,8.63
2022-10-15T00:29:38.496Z,9.02
2022-10-15T00:34:39.313Z,9.57
2022-10-15T00:39:41.460Z,9.73
2022-10-15T00:44:52.318Z,9.25
2022-10-15T00:49:59.798Z,10.18
2022-10-15T00:55:06.363Z,10.50
2022-10-15T01:00:10.135Z,10.45
2022-10-15T01:05:14.181Z,10.70
2022-10-15T01:10:18.549Z,11.20
2022-10-15T01:15:27.319Z,10.98
2022-10-15T01:20:51.149Z,11.07
2022-10-15T01:26:07.101Z,10.82
2022-10-15T01:31:20.445Z,11.15
2022-10-15T01:36:32.887Z,11.63
2022-10-15T01:41:43.976Z,12.25
2022-10-15T01:46:49.204Z,12.15
2022-10-15T01:51:58.323Z,11.07
2022-10-15T01:57:00.861Z,11.65
2022-10-15T02:02:03.585Z,11.25
2022-10-15T02:07:09.178Z,12.95
2022-10-15T02:12:21.961Z,11.95
2022-10-15T02:17:33.101Z,13.18
2022-10-15T02:22:38.636Z,11.88
2022-10-15T02:27:41.971Z,12.70
2022-10-15T02:32:48.531Z,13.25
2022-10-15T02:37:52.659Z,12.55
2022-10-15T02:42:53.953Z,12.80
2022-10-15T02:47:56.124Z,13.18
2022-10-15T02:52:58.533Z,13.00
2022-10-15T02:57:59.960Z,13.40
2022-10-15T03:03:02.312Z,13.45
2022-10-15T03:08:03.557Z,13.02
2022-10-15T03:13:06.149Z,12.98
2022-10-15T03:18:14.883Z,13.27
2022-10-15T03:23:15.767Z,12.38
2022-10-15T03:28:19.013Z,13.63
2022-10-15T03:33:23.194Z,13.10
2022-10-15T03:38:26.517Z,12.93
2022-10-15T03:43:28.481Z,13.38
2022-10-15T03:48:35.563Z,12.65
2022-10-15T03:53:36.409Z,13.95
2022-10-15T03:58:37.456Z,13.43
2022-10-15T04:03:42.687Z,13.40
2022-10-15T04:08:43.783Z,13.98
2022-10-15T04:13:59.435Z,12.48
2022-10-15T04:19:01.625Z,12.23
2022-10-15T04:24:02.539Z,13.60
2022-10-15T04:29:09.286Z,11.88
2022-10-15T04:34:11.820Z,11.93
2022-10-15T04:39:14.638Z,12.23
2022-10-15T04:44:17.507Z,12.10
2022-10-15T04:49:26.228Z,10.70
2022-10-15T04:59:36.790Z,12.25
2022-10-15T05:04:57.289Z,12.68
2022-10-15T05:09:58.446Z,13.18
2022-10-15T05:14:59.544Z,13.23
2022-10-15T05:20:04.084Z,13.95
2022-10-15T05:25:05.317Z,12.98
2022-10-15T05:30:12.802Z,13.15
2022-10-15T05:35:25.914Z,13.90
2022-10-15T05:40:29.228Z,12.85
2022-10-15T05:45:50.641Z,12.35
2022-10-15T05:51:03.954Z,12.40
2022-10-15T05:56:06.277Z,11.77
2022-10-15T06:01:09.599Z,11.75
2022-10-15T06:06:18.736Z,12.10
2022-10-15T06:11:20.128Z,11.13
2022-10-15T06:16:23.757Z,11.85
2022-10-15T06:21:27.234Z,10.68
2022-10-15T06:26:28.090Z,10.85
2022-10-15T06:31:28.915Z,10.50
2022-10-15T06:36:31.063Z,10.27
2022-10-15T06:41:31.849Z,10.05
2022-10-15T06:46:32.630Z,9.48
2022-10-15T06:51:34.787Z,9.18
2022-10-15T06:56:35.572Z,8.48
2022-10-15T07:01:38.588Z,7.97
2022-10-15T07:06:44.443Z,7.70
2022-10-15T07:11:45.245Z,8.48
2022-10-15T07:16:46.063Z,7.15
2022-10-15T07:21:48.290Z,6.90
2022-10-15T07:26:49.438Z,6.00
2022-10-15T07:31:50.335Z,6.13
2022-10-15T07:36:53.850Z,6.05
2022-10-15T07:41:54.682Z,5.85
2022-10-15T07:46:55.487Z,4.95
2022-10-15T07:51:57.667Z,4.53
2022-10-15T07:56:58.780Z,4.45
2022-10-15T08:01:59.933Z,3.65
2022-10-15T08:07:02.186Z,3.72
2022-10-15T08:12:03.614Z,3.03
2022-10-15T08:17:05.057Z,3.60
2022-10-15T08:22:07.234Z,3.30
2022-10-15T08:27:08.074Z,3.20
2022-10-15T08:32:08.840Z,2.80
2022-10-15T08:37:11.200Z,3.20
2022-10-15T08:42:19.227Z,2.95
2022-10-15T08:47:30.005Z,2.83
2022-10-15T08:52:42.846Z,3.22
2022-10-15T08:57:48.676Z,2.92
2022-10-15T09:02:57.573Z,2.47
2022-10-15T09:08:07.112Z,2.42
2022-10-15T09:13:16.494Z,2.28
2022-10-15T09:18:22.777Z,2.63
2022-10-15T09:23:27.855Z,2.25
2022-10-15T09:28:37.282Z,1.95
2022-10-15T09:33:44.145Z,2.10
2022-10-15T09:38:58.877Z,1.90
2022-10-15T09:44:04.555Z,2.30
2022-10-15T09:49:19.173Z,2.00
2022-10-15T09:54:33.459Z,2.03
2022-10-15T09:59:34.314Z,1.63
2022-10-15T10:04:38.519Z,2.20
2022-10-15T10:09:51.020Z,2.10
2022-10-15T10:14:56.993Z,2.22
2022-10-15T10:20:17.284Z,2.42
2022-10-15T10:25:32.515Z,2.05
2022-10-15T10:30:38.501Z,2.05
2022-10-15T10:35:46.956Z,2.50
2022-10-15T10:40:53.531Z,1.98
2022-10-15T10:45:59.664Z,2.03
2022-10-15T10:51:10.515Z,2.30
2022-10-15T10:56:15.842Z,2.08
2022-10-15T11:01:17.130Z,2.00
2022-10-15T11:06:45.610Z,2.38
2022-10-15T11:12:02.594Z,2.55
2022-10-15T11:17:16.704Z,2.50
2022-10-15T11:22:39.671Z,1.98
2022-10-15T11:27:57.930Z,2.42
2022-10-15T11:33:08.909Z,2.20
2022-10-15T11:38:20.469Z,2.10
2022-10-15T11:43:39.741Z,2.55
2022-10-15T11:48:52.327Z,2.28
2022-10-15T11:54:14.591Z,2.22
2022-10-15T11:59:34.023Z,2.03
2022-10-15T12:04:41.757Z,1.77
2022-10-15T12:09:45.542Z,1.73
2022-10-15T12:14:54.529Z,1.40
2022-10-15T12:20:02.950Z,1.40
2022-10-15T12:25:03.914Z,1.55
2022-10-15T12:30:34.445Z,1.30
2022-10-15T12:35:37.530Z,1.60
2022-10-15T12:40:41.043Z,1.35
2022-10-15T12:45:52.568Z,1.75
2022-10-15T12:51:40.561Z,1.83
2022-10-15T12:56:42.784Z,2.10
2022-10-15T13:01:53.303Z,1.70
2022-10-15T13:06:54.204Z,1.90
2022-10-15T13:11:58.126Z,1.10
2022-10-15T13:16:59.762Z,1.60
2022-10-15T13:22:02.600Z,1.70
2022-10-15T13:27:15.865Z,1.10
2022-10-15T13:32:16.684Z,1.02
2022-10-15T13:37:22.158Z,0.85
2022-10-15T13:42:26.381Z,0.70
2022-10-15T13:47:30.749Z,0.90
2022-10-15T13:52:31.600Z,0.63
2022-10-15T13:57:33.769Z,0.30
2022-10-15T14:02:34.681Z,0.70
2022-10-15T14:07:35.581Z,1.10
2022-10-15T14:12:38.981Z,0.98
2022-10-15T14:17:40.147Z,1.40
2022-10-15T14:22:41.046Z,1.63
2022-10-15T14:27:46.764Z,1.90
2022-10-15T14:32:51.695Z,2.40
2022-10-15T14:38:02.491Z,2.17
2022-10-15T14:43:07.155Z,2.25
2022-10-15T14:48:12.047Z,2.20
2022-10-15T14:53:20.130Z,2.92
2022-10-15T14:58:24.764Z,2.78
2022-10-15T15:03:29.472Z,2.80
2022-10-15T15:08:30.366Z,2.58
2022-10-15T15:13:33.911Z,3.10
2022-10-15T15:18:35.834Z,3.03
2022-10-15T15:23:37.068Z,2.75
2022-10-15T15:28:39.329Z,2.67
2022-10-15T15:33:41.280Z,3.10
2022-10-15T15:38:42.187Z,3.22
2022-10-15T15:43:45.670Z,3.47
2022-10-15T15:48:46.461Z,3.55
2022-10-15T15:53:47.354Z,3.40
2022-10-15T15:58:50.322Z,3.70
2022-10-15T16:03:51.166Z,4.55
2022-10-15T16:08:53.251Z,4.63
2022-10-15T16:13:55.424Z,4.82
2022-10-15T16:18:56.209Z,4.95
2022-10-15T16:23:57.061Z,4.72
2022-10-15T16:28:59.222Z,5.03
2022-10-15T16:34:00.115Z,5.10
2022-10-15T16:39:01.105Z,4.90
2022-10-15T16:44:03.661Z,5.78
2022-10-15T16:49:04.771Z,5.78
2022-10-15T16:54:05.880Z,5.30
2022-10-15T16:59:08.157Z,6.30
2022-10-15T17:04:09.040Z,5.32
2022-10-15T17:09:09.876Z,5.95
2022-10-15T17:14:14.330Z,6.55
2022-10-15T17:19:17.191Z,5.28
2022-10-15T17:24:19.123Z,6.30
2022-10-15T17:29:23.054Z,6.22
2022-10-15T17:34:24.021Z,6.43
2022-10-15T17:39:25.476Z,7.38
2022-10-15T17:44:27.775Z,7.57
2022-10-15T17:49:28.809Z,7.72
2022-10-15T17:54:30.685Z,8.80
2022-10-15T17:59:33.109Z,10.15
2022-10-15T18:04:34.064Z,10.18
2022-10-15T18:09:35.387Z,11.45
2022-10-15T18:14:38.287Z,11.48
2022-10-15T18:19:39.114Z,11.68
2022-10-15T18:24:41.120Z,11.40
2022-10-15T18:29:44.258Z,10.70
2022-10-15T18:34:45.586Z,11.48
2022-10-15T18:39:46.377Z,11.63
2022-10-15T18:44:51.437Z,11.77
2022-10-15T18:49:53.719Z,11.07
2022-10-15T18:54:54.504Z,10.43
2022-10-15T18:59:56.667Z,10.48
2022-10-15T19:04:57.449Z,10.50
2022-10-15T19:09:58.460Z,10.40
2022-10-15T19:15:01.882Z,9.75
2022-10-15T19:20:02.746Z,10.45
2022-10-15T19:25:03.525Z,11.15
2022-10-15T19:30:08.191Z,10.88
2022-10-15T19:35:09.954Z,10.85
2022-10-15T19:40:11.098Z,10.00
2022-10-15T19:50:19.243Z,10.63
2022-10-15T19:55:21.589Z,11.98
2022-10-15T20:00:23.807Z,11.68
2022-10-15T20:05:24.692Z,11.82
2022-10-15T20:10:26.427Z,13.43
2022-10-15T20:15:29.176Z,14.63
2022-10-15T20:20:30.293Z,13.40
2022-10-15T20:25:31.518Z,14.00
2022-10-15T20:30:33.815Z,14.15
2022-10-15T20:35:35.217Z,14.10
2022-10-15T20:40:39.872Z,14.80
2022-10-15T20:45:45.575Z,19.55
2022-10-15T20:50:47.781Z,14.05
2022-10-15T20:55:48.669Z,16.02
2022-10-15T21:00:50.899Z,14.15
2022-10-15T21:05:51.873Z,14.55
2022-10-15T21:10:52.858Z,14.38
2022-10-15T21:16:00.332Z,13.57
2022-10-15T21:21:06.198Z,14.88
2022-10-15T21:26:08.379Z,13.98
2022-10-15T21:31:12.957Z,15.40
2022-10-15T21:36:15.596Z,14.88
2022-10-15T21:41:18.901Z,14.30
2022-10-15T21:46:21.699Z,15.20
2022-10-15T21:51:25.297Z,14.35
2022-10-15T21:56:26.508Z,14.70
2022-10-15T22:01:31.513Z,13.43
2022-10-15T22:06:33.004Z,13.75
2022-10-15T22:11:35.278Z,12.73
2022-10-15T22:16:38.927Z,13.07
2022-10-15T22:21:39.977Z,13.05
2022-10-15T22:26:42.804Z,12.93
2022-10-15T22:31:45.083Z,12.82
2022-10-15T22:36:46.021Z,12.00
2022-10-15T22:41:48.661Z,13.23
2022-10-15T22:46:51.265Z,13.15
2022-10-15T22:51:52.533Z,13.73
2022-10-15T22:56:53.414Z,12.98
2022-10-15T23:01:55.554Z,12.68
2022-10-15T23:06:56.330Z,13.55
2022-10-15T23:12:28.179Z,12.75
2022-10-15T23:17:32.737Z,14.95
2022-10-15T23:22:33.605Z,13.50
2022-10-15T23:27:34.435Z,14.02
2022-10-15T23:32:36.581Z,14.73
2022-10-15T23:37:40.974Z,14.23
2022-10-15T23:42:41.770Z,13.20
2022-10-15T23:47:43.886Z,15.68
2022-10-15T23:52:44.669Z,14.38
2022-10-15T23:57:50.727Z,15.48
